Time;durP1;ratioP1;P1;durP2;ratioP2;P2;SDS_P1;SDS_P2;PMS_P1;PMS_P2;Temp;Humidity;BMP_temperature;BMP_pressure;BME280_temperature;BME280_humidity;BME280_pressure;Samples;Min_cycle;Max_cycle;Signal;HPM_P1;HPM_P2
2022/10/20 03:56:16;;;;;;;19.50;13.70;;;;;;;18.17;52.94;99965.19;4133078;28;20244;-43
2022/10/20 03:58:18;;;;;;;22.00;14.13;;;;;;;18.26;52.15;99968.50;4130818;28;20260;-45
2022/10/20 04:00:19;;;;;;;20.97;13.87;;;;;;;18.79;51.26;99943.44;4131616;28;20320;-46
2022/10/20 04:02:30;;;;;;;22.90;14.07;;;;;;;17.69;52.25;99981.31;4108611;28;20698;-46
2022/10/20 04:04:32;;;;;;;21.43;13.87;;;;;;;18.88;51.31;99957.56;4134489;28;20922;-46
2022/10/20 04:06:33;;;;;;;22.93;13.73;;;;;;;18.62;51.46;99969.16;4135389;28;20381;-45
2022/10/20 04:09:36;;;;;;;23.83;15.17;;;;;;;17.53;54.04;99963.69;4201809;27;20538;-68
2022/10/20 04:11:37;;;;;;;21.80;16.27;;;;;;;16.87;54.40;99993.59;4099161;28;20293;-64
2022/10/20 04:13:39;;;;;;;21.57;15.73;;;;;;;17.38;54.25;99979.94;4128862;28;20209;-69
2022/10/20 04:15:41;;;;;;;22.03;13.43;;;;;;;18.90;51.08;99933.97;4067130;28;21003;-68
2022/10/20 04:17:42;;;;;;;21.80;13.97;;;;;;;18.19;52.75;99955.03;4133419;28;20197;-68
2022/10/20 04:19:44;;;;;;;21.63;13.90;;;;;;;18.45;51.47;99966.88;4126668;28;20233;-65
2022/10/20 04:21:46;;;;;;;20.73;14.50;;;;;;;17.72;52.55;99978.25;4114873;28;20224;-70
2022/10/20 04:23:47;;;;;;;21.87;14.57;;;;;;;17.96;52.91;99960.72;4113391;28;20771;-67
2022/10/20 04:25:49;;;;;;;17.40;13.40;;;;;;;17.47;53.58;99976.06;4114113;28;20214;-70
2022/10/20 04:27:51;;;;;;;18.80;13.60;;;;;;;18.13;52.50;99950.47;4094763;28;20218;-68
2022/10/20 04:29:52;;;;;;;21.43;14.10;;;;;;;18.20;51.81;99972.00;4114334;28;20325;-67
2022/10/20 04:31:54;;;;;;;20.90;14.47;;;;;;;17.83;52.65;99975.00;4116422;28;20210;-68
2022/10/20 04:33:55;;;;;;;20.63;14.30;;;;;;;18.23;52.47;99950.06;4119510;28;20454;-67
2022/10/20 04:36:04;;;;;;;24.30;14.70;;;;;;;17.88;52.19;99968.16;4113908;28;20316;-66
2022/10/20 04:38:06;;;;;;;19.47;15.10;;;;;;;18.30;51.89;99948.22;4125893;28;20247;-66
2022/10/20 04:40:08;;;;;;;21.20;15.10;;;;;;;18.11;52.24;99951.72;4090471;28;20245;-66
2022/10/20 04:42:10;;;;;;;20.83;14.63;;;;;;;18.64;51.37;99918.59;4106636;28;20328;-66
2022/10/20 04:44:11;;;;;;;23.13;15.90;;;;;;;17.88;51.44;99960.09;4109787;28;20236;-66
2022/10/20 04:46:13;;;;;;;21.73;15.80;;;;;;;18.44;51.06;99954.44;4111832;28;20241;-66
2022/10/20 04:48:52;;;;;;;19.80;14.10;;;;;;;17.50;53.15;99972.16;3949519;27;7816653;-66
2022/10/20 04:51:04;;;;;;;24.33;15.67;;;;;;;17.21;53.87;99963.28;4209601;28;20233;-66
2022/10/20 04:53:06;;;;;;;25.30;14.33;;;;;;;18.27;51.85;99929.78;4187950;28;20714;-68
2022/10/20 04:55:08;;;;;;;23.87;15.07;;;;;;;17.81;52.88;99939.38;4207337;28;20217;-65
2022/10/20 04:57:16;;;;;;;21.30;15.40;;;;;;;17.61;52.68;99944.69;4208825;28;20310;-66
2022/10/20 05:02:13;;;;;;;25.00;15.97;;;;;;;15.83;58.11;99879.53;4208736;27;20576;-68
2022/10/20 05:04:20;;;;;;;22.03;16.33;;;;;;;16.03;57.05;99877.06;4141588;28;20287;-69
2022/10/20 05:06:26;;;;;;;22.20;15.23;;;;;;;16.33;56.59;99871.53;4133843;28;20223;-66
2022/10/20 05:08:27;;;;;;;19.57;13.70;;;;;;;16.66;55.52;99866.44;4159045;28;20442;-67
2022/10/20 05:10:29;;;;;;;23.53;14.17;;;;;;;16.64;55.00;99865.00;4159726;28;20653;-67
2022/10/20 05:12:37;;;;;;;24.60;13.20;;;;;;;16.15;55.64;99899.66;4156986;28;20438;-71
2022/10/20 05:14:39;;;;;;;18.47;13.57;;;;;;;16.68;54.89;99872.44;4162607;28;20248;-70
2022/10/20 05:16:40;;;;;;;18.33;14.50;;;;;;;16.90;54.37;99867.00;4156869;28;20512;-69
2022/10/20 05:18:43;;;;;;;18.00;13.80;;;;;;;16.89;54.23;99876.91;4122804;28;20912;-66
2022/10/20 05:20:44;;;;;;;18.77;13.20;;;;;;;17.07;53.69;99883.63;4156244;28;20235;-65
2022/10/20 05:23:06;;;;;;;18.73;14.37;;;;;;;15.59;57.05;99935.13;4167778;28;20232;-63
2022/10/20 05:25:08;;;;;;;19.53;14.27;;;;;;;15.90;56.61;99922.50;4130286;28;20276;-64
2022/10/20 05:27:29;;;;;;;22.20;14.80;;;;;;;16.57;55.21;99885.56;4153246;28;20232;-66
2022/10/20 05:30:01;;;;;;;20.63;14.50;;;;;;;15.67;57.18;99883.25;4151928;28;20881;-68
2022/10/20 05:32:03;;;;;;;18.77;14.43;;;;;;;15.77;56.88;99881.09;4085222;28;20345;-65
2022/10/20 05:34:05;;;;;;;23.30;14.93;;;;;;;15.33;57.39;99898.09;4085372;28;20238;-65
2022/10/20 05:36:09;;;;;;;20.10;14.17;;;;;;;15.39;57.90;99889.31;4090176;28;20242;-66
2022/10/20 05:38:10;;;;;;;19.00;13.93;;;;;;;16.49;55.91;99828.31;4087602;28;20230;-66
2022/10/20 05:40:12;;;;;;;19.53;14.77;;;;;;;15.63;57.16;99893.53;4078130;28;20234;-65
2022/10/20 05:42:14;;;;;;;18.80;13.90;;;;;;;15.84;56.47;99885.72;4097930;28;20244;-65
2022/10/20 05:44:15;;;;;;;20.37;14.53;;;;;;;16.60;55.31;99843.03;4099186;28;20314;-65
2022/10/20 05:46:18;;;;;;;18.30;14.10;;;;;;;16.49;55.75;99843.63;4093402;28;21284;-65
2022/10/20 05:48:21;;;;;;;18.60;14.07;;;;;;;15.91;56.01;99897.34;4097290;28;20242;-65
2022/10/20 05:50:22;;;;;;;21.13;14.60;;;;;;;16.06;55.75;99897.28;4074605;28;20264;-65
2022/10/20 05:52:24;;;;;;;19.03;14.33;;;;;;;16.08;55.37;99897.91;4099232;28;20226;-65
2022/10/20 05:54:26;;;;;;;19.40;13.57;;;;;;;15.78;56.51;99923.00;4095629;28;20223;-65
2022/10/20 05:56:29;;;;;;;20.67;14.60;;;;;;;15.34;56.96;99929.22;4093336;28;20859;-65
2022/10/20 05:58:31;;;;;;;19.63;15.10;;;;;;;16.38;55.00;99879.81;4093165;28;20318;-65
2022/10/20 06:00:40;;;;;;;18.63;13.70;;;;;;;16.03;55.31;99922.66;4094107;28;20268;-65
2022/10/20 06:02:42;;;;;;;19.63;13.83;;;;;;;15.89;55.65;99936.91;4073052;28;20237;-65
2022/10/20 06:04:43;;;;;;;22.50;14.80;;;;;;;15.94;55.90;99947.91;4096649;28;20231;-65
2022/10/20 06:06:47;;;;;;;22.27;15.80;;;;;;;16.88;54.18;99894.03;4091320;28;20235;-65
2022/10/20 06:08:49;;;;;;;18.93;14.53;;;;;;;16.42;54.95;99920.50;4095539;28;20227;-66
2022/10/20 06:11:32;;;;;;;26.60;14.40;;;;;;;16.42;55.49;99890.97;3973342;27;7172256;-41
2022/10/20 06:13:41;;;;;;;17.57;14.50;;;;;;;16.10;54.77;99936.13;4223945;28;20224;-43
2022/10/20 06:15:42;;;;;;;21.80;14.60;;;;;;;15.59;56.59;99951.19;4225281;28;20223;-41
2022/10/20 06:17:45;;;;;;;21.43;14.03;;;;;;;15.18;57.09;99954.34;4221917;28;20235;-40
2022/10/20 06:19:53;;;;;;;18.67;13.87;;;;;;;16.45;54.67;99899.50;4219586;28;20237;-44
2022/10/20 06:21:55;;;;;;;18.97;14.00;;;;;;;15.80;55.08;99939.72;4221071;28;20249;-44
2022/10/20 06:23:58;;;;;;;17.27;13.57;;;;;;;16.68;54.46;99898.47;4221673;28;20206;-44
2022/10/20 06:26:10;;;;;;;21.43;14.33;;;;;;;16.44;55.04;99910.44;4232363;28;20636;-43
2022/10/20 06:28:12;;;;;;;20.27;14.23;;;;;;;16.13;55.37;99944.63;4226782;28;20245;-44
2022/10/20 06:30:13;;;;;;;18.30;13.53;;;;;;;16.65;54.28;99921.13;4234938;28;20263;-44
2022/10/20 06:32:21;;;;;;;19.80;14.00;;;;;;;16.69;54.29;99937.72;3309101;28;10000227;-44
2022/10/20 06:34:24;;;;;;;19.47;14.23;;;;;;;16.83;53.93;99933.28;4169493;28;20237;-44
2022/10/20 06:36:26;;;;;;;19.50;13.73;;;;;;;16.82;54.10;99935.13;4141999;28;94645;-44
2022/10/20 06:38:35;;;;;;;19.00;15.27;;;;;;;15.82;55.95;99985.09;4155765;28;20212;-43
2022/10/20 06:40:37;;;;;;;18.10;14.20;;;;;;;17.05;54.16;99924.09;4156279;28;20227;-43
2022/10/20 06:42:38;;;;;;;20.63;14.27;;;;;;;17.18;53.61;99942.19;4156197;28;20521;-45
2022/10/20 06:47:29;;;;;;;20.03;15.60;;;;;;;12.88;64.52;99937.03;4172203;27;20799;-33
2022/10/20 06:49:31;;;;;;;16.23;13.17;;;;;;;12.43;65.18;99959.69;4128561;28;20529;-28
2022/10/20 06:51:34;;;;;;;24.37;13.50;;;;;;;12.91;65.56;99901.16;4132006;28;20467;-28
2022/10/20 06:53:36;;;;;;;17.97;13.40;;;;;;;13.45;63.38;99928.03;4135009;28;20502;-32
2022/10/20 06:55:38;;;;;;;17.77;13.10;;;;;;;12.93;64.87;99941.88;4139297;28;20283;-31
2022/10/20 06:57:41;;;;;;;16.20;12.27;;;;;;;13.83;63.17;99877.41;4141542;28;20333;-27
2022/10/20 06:59:42;;;;;;;16.43;12.90;;;;;;;14.30;61.60;99881.72;4113504;28;20537;-28
2022/10/20 07:01:44;;;;;;;17.37;13.57;;;;;;;13.46;62.54;99940.34;4124904;22;21036;-64
2022/10/20 07:03:47;;;;;;;16.00;12.50;;;;;;;12.78;64.91;99969.19;4114864;28;20224;-63
2022/10/20 07:05:48;;;;;;;19.07;13.30;;;;;;;13.21;64.75;99913.75;4139111;28;20236;-64
2022/10/20 07:07:53;;;;;;;16.93;12.30;;;;;;;14.42;62.00;99846.53;4140686;28;20676;-63
2022/10/20 07:09:54;;;;;;;20.10;13.20;;;;;;;13.54;63.83;99889.56;4138276;28;20758;-63
2022/10/20 07:11:56;;;;;;;18.43;12.27;;;;;;;14.47;61.47;99857.50;4113793;28;20260;-64
2022/10/20 07:13:58;;;;;;;20.57;12.87;;;;;;;14.47;61.34;99874.38;4136764;28;20258;-64
2022/10/20 07:16:00;;;;;;;17.63;13.00;;;;;;;14.31;61.23;99885.25;4136710;28;20746;-64
2022/10/20 07:18:01;;;;;;;17.23;12.57;;;;;;;13.69;63.25;99919.06;4135633;28;20861;-64
2022/10/20 07:20:03;;;;;;;17.93;12.77;;;;;;;13.61;62.71;99928.94;4135203;28;20255;-64
2022/10/20 07:22:05;;;;;;;18.20;12.07;;;;;;;13.92;62.48;99912.91;4136279;28;20324;-62
2022/10/20 07:24:08;;;;;;;16.80;12.10;;;;;;;14.77;60.57;99863.75;4133888;28;20260;-63
2022/10/20 07:26:11;;;;;;;16.13;12.43;;;;;;;15.19;59.13;99891.72;4109602;28;20436;-62
2022/10/20 07:28:13;;;;;;;16.87;12.27;;;;;;;14.65;60.32;99919.56;4132644;28;20232;-63
2022/10/20 07:30:16;;;;;;;16.83;11.77;;;;;;;15.56;59.20;99889.09;4130457;28;20319;-65
2022/10/20 07:32:18;;;;;;;28.25;16.10;;;;;;;16.61;57.09;99895.72;4131623;28;20478;-62
2022/10/20 07:34:22;;;;;;;14.70;12.67;;;;;;;16.93;54.98;99945.31;4136828;28;20294;-62
2022/10/20 07:36:30;;;;;;;16.53;11.57;;;;;;;17.38;54.15;99946.84;4134290;28;20387;-61
2022/10/20 07:38:36;;;;;;;17.43;12.70;;;;;;;16.74;54.10;99997.03;4111870;28;20557;-62
2022/10/20 07:40:37;;;;;;;15.47;11.83;;;;;;;17.34;53.06;99983.22;4138036;28;20225;-63
2022/10/20 07:42:39;;;;;;;16.47;12.33;;;;;;;16.65;55.05;100011.59;4129619;28;20595;-62
2022/10/20 07:44:41;;;;;;;17.40;11.93;;;;;;;17.31;54.15;99978.25;4132300;28;20233;-62
2022/10/20 07:46:43;;;;;;;21.77;13.30;;;;;;;17.85;53.31;99956.78;4132008;28;20305;-62
2022/10/20 07:48:45;;;;;;;17.70;13.67;;;;;;;17.49;53.97;99981.22;4131602;28;20241;-64
2022/10/20 07:50:46;;;;;;;14.30;12.17;;;;;;;17.52;54.12;99969.25;4107098;28;20835;-61
2022/10/20 07:52:52;;;;;;;14.40;11.90;;;;;;;17.61;53.96;99985.00;4103020;28;20932;-63
2022/10/20 07:54:53;;;;;;;14.33;11.83;;;;;;;18.38;52.72;99961.47;4114124;28;21076;-62
2022/10/20 07:57:15;;;;;;;18.90;12.47;;;;;;;18.28;52.42;99979.06;4113937;28;22295;-61
2022/10/20 07:59:17;;;;;;;16.17;13.37;;;;;;;18.31;51.78;100010.97;4102340;28;20366;-64
2022/10/20 08:01:19;;;;;;;18.83;13.20;;;;;;;17.58;53.51;100041.88;4114066;28;20255;-62
2022/10/20 08:03:20;;;;;;;18.13;12.83;;;;;;;18.49;52.20;99991.50;4100094;28;20233;-62
2022/10/20 08:05:22;;;;;;;20.00;12.40;;;;;;;17.25;53.85;100057.75;4109869;28;20272;-61
2022/10/20 08:07:24;;;;;;;15.50;11.63;;;;;;;18.15;53.32;100002.19;4078197;28;20252;-62
2022/10/20 08:09:25;;;;;;;16.43;12.17;;;;;;;18.45;52.81;100009.94;4081562;28;20249;-62
2022/10/20 08:11:27;;;;;;;18.87;12.23;;;;;;;18.19;52.47;100032.25;4068786;28;20246;-61
2022/10/20 08:13:29;;;;;;;19.50;13.17;;;;;;;18.78;51.41;100022.63;3214908;28;10000429;-62
2022/10/20 08:15:30;;;;;;;15.20;13.00;;;;;;;18.82;51.50;100006.91;4081199;28;20341;-64
2022/10/20 08:17:32;;;;;;;19.80;13.47;;;;;;;18.45;52.00;100018.00;4075130;28;20386;-64
2022/10/20 08:19:34;;;;;;;18.00;12.27;;;;;;;17.28;54.23;100070.84;4075738;28;20323;-62
2022/10/20 08:21:49;;;;;;;14.87;12.50;;;;;;;17.84;53.95;100060.00;4114619;23;20244;-30
2022/10/20 08:23:51;;;;;;;18.50;12.33;;;;;;;18.54;52.38;100035.66;4101367;28;20257;-28
2022/10/20 08:25:55;;;;;;;18.50;12.50;;;;;;;18.55;52.21;100074.16;4082832;28;20339;-32
2022/10/20 08:27:57;;;;;;;20.97;12.33;;;;;;;18.64;52.10;100066.72;4099383;28;20646;-29
2022/10/20 08:30:04;;;;;;;17.47;12.03;;;;;;;18.50;52.16;100073.97;4092797;28;20249;-32
2022/10/20 08:32:24;;;;;;;20.70;11.50;;;;;;;19.09;50.94;100051.66;4105551;28;20249;-29
2022/10/20 08:34:26;;;;;;;16.67;12.20;;;;;;;19.37;50.60;100041.66;4100724;28;20233;-30
2022/10/20 08:36:28;;;;;;;16.27;11.93;;;;;;;18.81;51.38;100070.69;4106101;28;20537;-31
2022/10/20 08:38:29;;;;;;;16.60;12.27;;;;;;;19.13;50.85;100052.91;4101206;28;20269;-32
2022/10/20 08:40:41;;;;;;;15.20;12.03;;;;;;;19.57;50.43;100030.88;4089076;28;20662;-28
2022/10/20 08:42:44;;;;;;;17.47;11.53;;;;;;;19.30;50.76;100044.38;4103767;28;20265;-29
2022/10/20 08:44:47;;;;;;;19.10;12.27;;;;;;;19.16;51.17;100053.53;4091271;28;20402;-30
2022/10/20 08:46:48;;;;;;;15.37;12.13;;;;;;;19.01;51.51;100064.50;4095614;28;20340;-28
2022/10/20 08:48:50;;;;;;;17.27;12.00;;;;;;;19.04;51.34;100058.72;4111435;28;20269;-29
2022/10/20 08:50:53;;;;;;;13.60;12.13;;;;;;;19.58;50.37;100037.94;4107474;28;20328;-29
2022/10/20 08:52:58;;;;;;;14.67;11.87;;;;;;;19.49;50.29;100053.50;4105614;28;20702;-29
2022/10/20 08:55:03;;;;;;;21.70;12.33;;;;;;;19.66;50.34;100025.03;4095335;28;20284;-28
2022/10/20 08:57:21;;;;;;;20.57;12.30;;;;;;;20.01;49.99;100022.00;4094378;28;20465;-29
2022/10/20 08:59:25;;;;;;;15.97;10.83;;;;;;;20.17;49.67;100025.25;4095312;28;20320;-30
2022/10/20 09:01:32;;;;;;;14.50;11.23;;;;;;;20.11;49.35;100024.25;4093459;28;20699;-31
2022/10/20 09:03:37;;;;;;;13.97;10.47;;;;;;;19.63;50.51;100046.22;4093472;28;20296;-30
2022/10/20 09:05:41;;;;;;;14.23;11.97;;;;;;;18.72;52.12;100074.63;4093394;28;20268;-30
2022/10/20 09:07:43;;;;;;;13.33;10.80;;;;;;;19.02;52.02;100053.53;4090742;28;20893;-28
2022/10/20 09:09:46;;;;;;;13.90;11.03;;;;;;;19.51;51.52;100016.34;4088764;28;20223;-28
2022/10/20 09:11:48;;;;;;;15.20;10.97;;;;;;;19.56;51.65;100013.06;4090051;28;20317;-30
2022/10/20 09:13:49;;;;;;;20.73;10.57;;;;;;;19.60;51.24;100007.00;4089404;28;20250;-30
2022/10/20 09:15:57;;;;;;;17.93;10.93;;;;;;;19.33;51.47;100030.47;4095845;28;20214;-31
2022/10/20 09:18:09;;;;;;;14.33;11.63;;;;;;;20.11;50.63;99999.97;4102586;28;20690;-30
2022/10/20 09:20:29;;;;;;;13.77;11.03;;;;;;;20.20;49.91;99987.03;4099041;28;20313;-28
2022/10/20 09:22:31;;;;;;;13.87;11.33;;;;;;;19.32;51.29;100034.25;4098875;28;20256;-32
2022/10/20 09:24:37;;;;;;;15.50;11.70;;;;;;;20.04;50.07;100001.84;4112152;28;20237;-28
2022/10/20 09:26:47;;;;;;;12.40;11.17;;;;;;;20.25;49.81;99996.13;4105147;28;20329;-31
2022/10/20 09:29:12;;;;;;;15.47;11.10;;;;;;;19.66;51.11;100030.44;4106026;28;20242;-30
2022/10/20 09:31:21;;;;;;;15.00;10.87;;;;;;;19.72;51.64;100017.13;4112313;28;20387;-30
2022/10/20 09:33:30;;;;;;;16.43;11.20;;;;;;;19.02;52.68;100037.38;4114332;28;20295;-30
2022/10/20 09:35:35;;;;;;;13.17;11.77;;;;;;;20.06;50.81;99976.31;4090767;28;102002;-30
2022/10/20 09:37:37;;;;;;;13.83;10.67;;;;;;;20.11;50.62;99991.88;4121169;28;20238;-29
2022/10/20 09:39:48;;;;;;;16.07;11.53;;;;;;;20.34;49.88;99988.63;4110148;28;20717;-30
2022/10/20 09:42:30;;;;;;;14.73;11.03;;;;;;;20.39;49.96;99991.50;4089772;28;20268;-30
2022/10/20 09:44:38;;;;;;;13.50;11.13;;;;;;;19.85;50.87;100052.16;4095888;28;20327;-32
2022/10/20 09:46:47;;;;;;;15.33;11.10;;;;;;;23.05;45.95;99926.22;4088817;28;20296;-31
2022/10/20 09:51:18;;;;;;;13.17;10.23;;;;;;;22.00;57.25;100043.94;3983674;27;7114935;-34
2022/10/20 09:54:04;;;;;;;14.27;10.03;;;;;;;23.86;54.00;99952.38;3308651;28;10000602;-30
2022/10/20 09:56:06;;;;;;;17.40;10.67;;;;;;;22.98;56.16;99961.34;4128460;28;20334;-32
2022/10/20 09:58:31;;;;;;;15.40;10.17;;;;;;;22.74;57.10;99962.72;4129514;27;20737;-30
2022/10/20 10:00:36;;;;;;;15.10;11.20;;;;;;;23.15;56.03;99921.47;4128762;28;20258;-32
2022/10/20 10:02:39;;;;;;;14.90;11.13;;;;;;;22.37;57.62;99956.78;4133362;27;102235;-30
2022/10/20 10:04:53;;;;;;;12.17;10.77;;;;;;;13.04;56.30;99914.81;4111711;27;21257;-32
2022/10/20 10:06:54;;;;;;;19.17;11.77;;;;;;;13.05;56.10;99926.41;4089587;28;20282;-36
2022/10/20 10:08:59;;;;;;;13.47;11.10;;;;;;;13.12;56.58;99929.13;3231100;28;10000894;-31
2022/10/20 10:11:13;;;;;;;14.80;11.17;;;;;;;11.66;58.68;99954.22;4118505;28;20290;-28
2022/10/20 10:13:25;;;;;;;15.07;10.80;;;;;;;12.88;56.83;99908.97;4106979;28;20331;-32
2022/10/20 10:16:14;;;;;;;15.87;11.00;;;;;;;15.49;55.83;99843.44;4149111;27;20728;-32
2022/10/20 10:18:21;;;;;;;13.97;10.77;;;;;;;14.34;58.18;99910.66;4112035;28;20295;-33
2022/10/20 10:20:32;;;;;;;16.03;11.83;;;;;;;14.65;57.00;99918.25;4128936;28;20671;-33
2022/10/20 10:22:34;;;;;;;18.27;11.03;;;;;;;14.65;58.16;99915.56;4111792;28;20424;-33
2022/10/20 10:24:41;;;;;;;15.20;11.17;;;;;;;14.67;58.30;99906.25;4088668;28;20239;-30
2022/10/20 10:26:52;;;;;;;15.27;11.10;;;;;;;14.21;58.14;99957.06;4126559;28;20764;-32
2022/10/20 10:28:57;;;;;;;18.73;11.37;;;;;;;14.17;59.84;99928.94;4085184;28;20305;-30
2022/10/20 10:31:19;;;;;;;14.20;10.60;;;;;;;14.17;59.06;99931.63;4114118;28;20585;-30
2022/10/20 10:33:26;;;;;;;15.47;10.90;;;;;;;14.32;58.73;99926.97;4112637;28;20263;-30
2022/10/20 10:35:36;;;;;;;13.77;10.97;;;;;;;15.09;57.16;99883.78;4106259;28;20323;-30
2022/10/20 10:37:42;;;;;;;11.70;10.13;;;;;;;14.78;57.26;99917.44;4115033;28;20779;-31
2022/10/20 10:39:44;;;;;;;14.73;10.70;;;;;;;15.03;57.60;99888.94;4125787;28;20251;-30
2022/10/20 10:42:02;;;;;;;15.00;10.80;;;;;;;15.05;57.08;99886.03;4120511;28;20326;-31
2022/10/20 10:44:52;;;;;;;14.20;11.13;;;;;;;14.51;55.80;99882.59;4066345;28;21139;-34
2022/10/20 10:47:03;;;;;;;12.17;10.70;;;;;;;14.31;56.65;99885.28;4087557;28;20320;-32
2022/10/20 10:51:23;;;;;;;13.93;11.70;;;;;;;13.15;58.64;99956.00;4105062;27;20943;-31
2022/10/20 10:53:53;;;;;;;15.53;11.20;;;;;;;14.97;55.65;99847.72;4098192;28;20525;-31
2022/10/20 10:56:23;;;;;;;17.83;12.73;;;;;;;14.47;55.70;99883.19;4081136;28;20272;-34
2022/10/20 10:58:41;;;;;;;14.77;11.17;;;;;;;13.98;57.28;99902.16;4080804;28;20312;-33
2022/10/20 11:03:24;;;;;;;13.70;10.93;;;;;;;13.89;59.38;99856.84;4149019;27;20734;-69
2022/10/20 11:06:07;;;;;;;17.53;12.13;;;;;;;13.31;59.76;99885.00;4096736;28;20235;-72
2022/10/20 11:08:50;;;;;;;14.97;11.77;;;;;;;14.14;58.67;99838.28;4092682;28;20241;-69
2022/10/20 11:11:08;;;;;;;13.40;11.13;;;;;;;13.33;59.61;99914.34;4069729;28;20272;-70
2022/10/20 11:13:18;;;;;;;13.87;11.07;;;;;;;14.57;57.61;99837.81;4108355;28;20327;-72
2022/10/20 11:15:30;;;;;;;15.43;12.03;;;;;;;14.93;56.41;99853.53;4109937;28;20229;-70
2022/10/20 11:17:55;;;;;;;14.53;11.10;;;;;;;15.18;55.77;99857.38;4148275;28;20239;-69
2022/10/20 11:20:22;;;;;;;16.17;11.60;;;;;;;15.01;55.85;99874.00;4127297;28;20239;-69
2022/10/20 11:22:54;;;;;;;13.57;10.63;;;;;;;15.32;55.31;99873.28;4107301;28;20873;-71
2022/10/20 11:25:33;;;;;;;16.00;11.67;;;;;;;14.78;56.51;99909.50;4103885;28;20244;-69
2022/10/20 11:27:36;;;;;;;14.23;11.13;;;;;;;14.72;57.07;99894.16;4133982;28;20255;-71
2022/10/20 11:29:44;;;;;;;14.27;11.40;;;;;;;14.65;57.26;99882.56;4136444;28;20236;-72
2022/10/20 11:31:48;;;;;;;14.80;11.80;;;;;;;13.72;59.16;99924.47;4125763;28;20228;-70
2022/10/20 11:34:01;;;;;;;13.77;11.23;;;;;;;14.25;58.56;99885.28;4120095;28;20220;-71
2022/10/20 11:36:15;;;;;;;17.50;11.80;;;;;;;14.62;56.86;99870.34;4123508;28;20797;-69
2022/10/20 11:38:24;;;;;;;13.80;10.80;;;;;;;15.21;55.62;99849.69;4127040;28;20240;-72
2022/10/20 11:40:38;;;;;;;16.10;10.30;;;;;;;15.36;55.76;99835.13;4129471;28;20231;-72
2022/10/20 11:43:01;;;;;;;17.17;11.23;;;;;;;14.55;56.70;99910.75;4147408;28;20329;-73
2022/10/20 11:45:38;;;;;;;17.33;11.07;;;;;;;15.14;55.71;99860.50;4129994;28;20342;-70
2022/10/20 11:47:45;;;;;;;14.70;10.77;;;;;;;14.18;57.71;99929.13;4144031;28;20317;-69
2022/10/20 11:49:46;;;;;;;13.47;10.40;;;;;;;15.29;55.97;99840.56;4139258;28;20209;-70
2022/10/20 11:52:00;;;;;;;14.80;11.40;;;;;;;15.41;55.19;99849.59;4122845;28;20307;-70
2022/10/20 11:54:20;;;;;;;18.73;11.40;;;;;;;15.29;55.35;99875.59;4126648;28;20227;-70
2022/10/20 11:56:43;;;;;;;17.47;11.83;;;;;;;15.63;55.19;99852.03;4122823;28;20319;-71
2022/10/20 11:59:06;;;;;;;16.17;11.33;;;;;;;16.55;52.79;99833.47;4131362;28;20311;-70
2022/10/20 12:01:27;;;;;;;13.90;10.77;;;;;;;15.36;55.07;99907.91;4126359;28;20335;-70
2022/10/20 12:03:38;;;;;;;16.43;11.13;;;;;;;15.39;55.46;99880.53;4125056;28;20338;-71
2022/10/20 12:05:58;;;;;;;16.30;11.80;;;;;;;14.69;57.33;99898.09;4108173;28;20700;-71
2022/10/20 12:08:26;;;;;;;17.10;12.23;;;;;;;14.52;58.02;99899.56;4134787;28;20307;-69
2022/10/20 12:10:55;;;;;;;14.33;10.80;;;;;;;15.93;55.19;99817.16;4118810;28;20236;-73
2022/10/20 12:13:14;;;;;;;14.30;11.30;;;;;;;15.55;54.80;99858.47;4118252;28;20252;-72
2022/10/20 12:15:24;;;;;;;17.23;11.80;;;;;;;15.36;55.70;99876.38;4136136;28;20324;-73
2022/10/20 12:17:34;;;;;;;17.10;11.87;;;;;;;15.27;55.30;99878.50;4110095;28;20835;-73
2022/10/20 12:19:36;;;;;;;13.87;11.67;;;;;;;15.60;55.18;99853.25;4089768;28;20248;-71
2022/10/20 12:21:56;;;;;;;12.20;10.63;;;;;;;15.18;55.91;99868.16;4111497;28;20335;-72
2022/10/20 12:24:02;;;;;;;14.13;10.90;;;;;;;15.06;56.28;99873.38;4092055;28;20328;-69
2022/10/20 12:26:43;;;;;;;15.87;11.40;;;;;;;15.49;55.31;99835.88;4090840;28;20237;-69
2022/10/20 12:28:45;;;;;;;13.80;11.33;;;;;;;15.37;55.31;99843.00;4112011;28;20323;-69
2022/10/20 12:30:58;;;;;;;16.53;11.57;;;;;;;15.29;55.71;99857.53;4111767;28;20946;-69
2022/10/20 12:33:17;;;;;;;17.10;12.50;;;;;;;14.60;57.45;99896.66;4103192;28;20943;-69
2022/10/20 12:35:19;;;;;;;22.40;15.17;;;;;;;14.32;58.00;99883.41;4109426;28;20239;-72
2022/10/20 12:37:23;;;;;;;19.03;15.00;;;;;;;13.90;59.60;99891.59;4108878;28;20246;-71
2022/10/20 12:39:28;;;;;;;13.97;12.27;;;;;;;14.89;57.48;99819.94;4117609;28;20304;-70
2022/10/20 12:41:33;;;;;;;18.33;12.30;;;;;;;15.01;57.18;99817.44;4094761;28;20333;-71
2022/10/20 12:43:49;;;;;;;16.93;11.67;;;;;;;14.67;58.06;99829.31;4092301;28;20272;-72
2022/10/20 12:45:55;;;;;;;13.87;11.93;;;;;;;15.05;57.15;99780.09;4108743;28;20229;-72
2022/10/20 12:47:59;;;;;;;19.10;13.10;;;;;;;15.32;56.89;99778.13;4124654;28;20338;-70
2022/10/20 12:50:04;;;;;;;44.43;24.40;;;;;;;15.12;57.53;99797.09;4123486;28;20336;-72
2022/10/20 12:52:18;;;;;;;61.33;28.77;;;;;;;14.46;58.15;99849.22;4119055;28;20229;-70
2022/10/20 12:54:34;;;;;;;209.63;71.13;;;;;;;15.20;57.13;99787.91;4118504;28;20229;-69
2022/10/20 12:56:39;;;;;;;32.70;17.63;;;;;;;14.86;57.84;99801.53;4115761;28;20260;-71
2022/10/20 12:59:23;;;;;;;18.03;12.80;;;;;;;14.31;58.72;99861.06;4121465;28;20225;-71
2022/10/20 13:01:27;;;;;;;15.87;11.80;;;;;;;14.45;58.24;99842.19;4104975;28;20242;-71
2022/10/20 13:03:46;;;;;;;14.53;11.57;;;;;;;15.50;56.26;99799.78;4094308;28;20292;-70
2022/10/20 13:05:48;;;;;;;14.87;11.37;;;;;;;15.56;55.61;99808.09;4133149;28;20635;-70
2022/10/20 13:07:53;;;;;;;15.20;11.27;;;;;;;15.33;56.21;99822.88;4138710;28;20232;-72
2022/10/20 13:09:54;;;;;;;14.40;10.20;;;;;;;15.93;55.14;99794.75;4115000;28;20225;-71
2022/10/20 13:12:03;;;;;;;13.17;10.40;;;;;;;15.49;55.61;99825.09;4109821;28;20233;-71
2022/10/20 13:14:33;;;;;;;15.97;10.80;;;;;;;14.73;57.56;99877.78;4105892;28;20249;-68
2022/10/20 13:16:37;;;;;;;16.10;11.47;;;;;;;14.48;58.51;99877.59;4119601;28;20221;-74
2022/10/20 13:18:45;;;;;;;12.63;10.97;;;;;;;15.28;57.12;99812.75;4109949;28;20271;-73
2022/10/20 13:21:18;;;;;;;14.50;10.93;;;;;;;15.40;56.44;99842.53;4108965;28;20239;-73
2022/10/20 13:23:36;;;;;;;15.83;10.67;;;;;;;14.78;57.18;99879.88;4126545;28;20247;-72
2022/10/20 13:25:44;;;;;;;28.77;17.13;;;;;;;14.97;57.96;99855.81;4118864;28;20244;-71
2022/10/20 13:27:48;;;;;;;17.63;12.73;;;;;;;14.24;59.06;99895.22;4120920;28;20809;-70
2022/10/20 13:29:50;;;;;;;20.80;15.57;;;;;;;14.33;58.56;99883.19;4122393;28;20310;-69
2022/10/20 13:32:10;;;;;;;18.67;10.53;;;;;;;13.98;59.47;99893.28;4113747;28;20815;-70
2022/10/20 13:34:32;;;;;;;14.73;9.57;;;;;;;13.87;60.09;99892.03;4131588;28;20319;-71
2022/10/20 13:36:59;;;;;;;12.97;9.20;;;;;;;15.18;56.86;99814.25;4113030;28;20237;-70
2022/10/20 13:39:02;;;;;;;11.10;9.47;;;;;;;14.75;58.25;99851.47;4107069;28;20233;-71
2022/10/20 13:41:23;;;;;;;14.97;9.03;;;;;;;13.98;60.05;99872.56;4110872;28;20235;-71
2022/10/20 13:43:38;;;;;;;12.90;9.80;;;;;;;15.53;57.14;99790.44;4132644;28;20827;-74
2022/10/20 13:46:01;;;;;;;13.43;9.50;;;;;;;13.63;60.39;99896.94;4113641;28;20237;-73
2022/10/20 13:48:08;;;;;;;11.90;9.63;;;;;;;13.01;62.87;99908.56;4106320;28;20329;-72
2022/10/20 13:50:15;;;;;;;15.60;10.30;;;;;;;13.08;62.98;99886.09;4109293;28;20324;-70
2022/10/20 13:52:17;;;;;;;15.60;10.47;;;;;;;14.46;60.68;99766.63;4090547;28;20526;-73
2022/10/20 13:54:25;;;;;;;16.97;10.10;;;;;;;13.85;60.63;99824.97;4092141;28;20938;-74
2022/10/20 13:56:41;;;;;;;11.00;9.50;;;;;;;14.10;60.32;99819.00;4096522;28;20308;-70
2022/10/20 13:59:05;;;;;;;13.97;9.83;;;;;;;13.56;61.67;99846.84;4092184;28;20684;-71